Time;durP1;ratioP1;P1;durP2;ratioP2;P2;SDS_P1;SDS_P2;PMS_P1;PMS_P2;Temp;Humidity;BMP_temperature;BMP_pressure;BME280_temperature;BME280_humidity;BME280_pressure;Samples;Min_cycle;Max_cycle;Signal;HPM_P1;HPM_P2
2023/09/02 00:01:36;;;;;;;5.10;2.70;;;23.50;87.30;;;;;;6187300;23;20462;-86
2023/09/02 00:04:03;;;;;;;2.97;2.77;;;23.60;87.40;;;;;;6187827;23;20414;-86
2023/09/02 00:06:30;;;;;;;3.23;3.03;;;23.50;87.20;;;;;;6188401;23;20462;-86
2023/09/02 00:08:57;;;;;;;2.80;2.60;;;23.60;87.40;;;;;;6187788;23;20399;-87
2023/09/02 00:11:25;;;;;;;2.57;2.47;;;23.50;87.30;;;;;;6188032;23;20406;-87
2023/09/02 00:13:52;;;;;;;2.80;2.60;;;23.50;87.30;;;;;;6187857;23;20407;-87
2023/09/02 00:16:18;;;;;;;2.93;2.73;;;23.60;87.30;;;;;;6187988;23;20440;-86
2023/09/02 00:18:46;;;;;;;2.77;2.57;;;23.50;87.20;;;;;;6187673;23;20403;-87
2023/09/02 00:21:12;;;;;;;3.30;3.00;;;23.30;87.00;;;;;;6187255;23;21012;-86
2023/09/02 00:23:45;;;;;;;2.90;2.70;;;23.50;87.20;;;;;;6187809;23;20984;-87
2023/09/02 00:26:12;;;;;;;3.43;3.13;;;23.50;87.30;;;;;;6187678;23;20387;-87
2023/09/02 00:28:40;;;;;;;3.27;3.07;;;23.40;87.10;;;;;;6187362;23;20405;-86
2023/09/02 00:31:06;;;;;;;3.20;3.00;;;23.50;87.20;;;;;;6187606;23;20405;-86
2023/09/02 00:33:33;;;;;;;2.70;2.50;;;23.50;87.20;;;;;;6187786;23;20403;-86
2023/09/02 00:36:00;;;;;;;2.57;2.37;;;23.40;87.10;;;;;;6187759;23;20488;-87
2023/09/02 00:38:27;;;;;;;2.90;2.70;;;23.40;87.10;;;;;;6187516;23;20402;-87
2023/09/02 00:41:01;;;;;;;3.03;2.83;;;23.40;87.10;;;;;;6187022;23;20949;-86
2023/09/02 00:43:29;;;;;;;3.03;2.83;;;23.40;87.10;;;;;;6187649;23;20904;-87
2023/09/02 00:45:59;;;;;;;2.63;2.43;;;23.40;87.10;;;;;;6187359;23;20398;-86
2023/09/02 00:48:26;;;;;;;2.40;2.30;;;23.40;87.10;;;;;;6187466;23;20881;-87
2023/09/02 00:50:53;;;;;;;2.50;2.30;;;23.40;87.10;;;;;;6187124;23;20934;-87
2023/09/02 00:53:20;;;;;;;6.03;2.60;;;23.40;87.10;;;;;;6187756;23;20413;-87
2023/09/02 00:55:48;;;;;;;3.30;3.10;;;23.40;87.10;;;;;;6187496;23;20402;-87
2023/09/02 00:58:15;;;;;;;2.23;2.13;;;23.40;87.10;;;;;;6187004;23;20893;-87
2023/09/02 01:00:42;;;;;;;3.13;2.93;;;23.40;87.10;;;;;;6186744;23;20533;-87
2023/09/02 01:03:11;;;;;;;2.67;2.47;;;23.50;87.20;;;;;;6187439;23;20736;-87
2023/09/02 01:05:37;;;;;;;2.70;2.50;;;23.40;87.10;;;;;;6187326;23;20433;-86
2023/09/02 01:08:06;;;;;;;2.70;2.50;;;23.40;87.10;;;;;;6186945;23;20412;-87
2023/09/02 01:10:37;;;;;;;2.83;2.63;;;23.40;87.10;;;;;;6187416;23;20409;-87
2023/09/02 01:13:04;;;;;;;3.03;2.83;;;23.40;87.10;;;;;;6187129;23;20394;-87
2023/09/02 01:15:32;;;;;;;2.63;2.43;;;23.40;87.10;;;;;;6187220;23;20904;-87
2023/09/02 01:17:59;;;;;;;2.47;2.37;;;23.40;87.00;;;;;;6187069;23;20406;-87
2023/09/02 01:20:39;;;;;;;2.70;2.50;;;23.40;87.00;;;;;;6186696;23;20942;-87
2023/09/02 01:23:26;;;;;;;2.40;2.30;;;23.40;87.10;;;;;;6187380;23;20394;-86
2023/09/02 01:26:19;;;;;;;2.90;2.70;;;23.40;87.10;;;;;;6187260;23;20409;-86
2023/09/02 01:28:49;;;;;;;2.90;2.60;;;23.40;87.10;;;;;;6187229;23;20387;-87
2023/09/02 01:31:18;;;;;;;2.60;2.40;;;23.40;87.10;;;;;;6187842;23;20482;-86
2023/09/02 01:33:47;;;;;;;2.93;2.73;;;23.40;87.10;;;;;;6187251;23;20390;-87
2023/09/02 01:36:17;;;;;;;3.10;2.80;;;23.40;87.10;;;;;;6186730;23;20399;-86
2023/09/02 01:38:44;;;;;;;3.00;2.80;;;23.40;87.10;;;;;;6187084;23;20929;-87
2023/09/02 01:41:13;;;;;;;2.90;2.70;;;23.40;87.10;;;;;;6186857;23;20457;-86
2023/09/02 01:43:40;;;;;;;2.80;2.60;;;23.40;87.10;;;;;;6187388;23;20491;-86
2023/09/02 01:46:09;;;;;;;2.10;2.00;;;23.40;87.10;;;;;;6187126;23;20799;-87
2023/09/02 01:48:37;;;;;;;3.03;2.83;;;23.40;87.10;;;;;;6186938;23;20405;-87
2023/09/02 01:51:04;;;;;;;2.63;2.43;;;23.40;87.10;;;;;;6186997;23;20430;-86
2023/09/02 01:53:31;;;;;;;2.80;2.60;;;23.40;87.10;;;;;;6186638;23;20403;-87
2023/09/02 01:55:59;;;;;;;2.87;2.67;;;23.40;87.10;;;;;;6187002;23;20487;-86
2023/09/02 01:58:26;;;;;;;2.57;2.43;;;23.40;87.10;;;;;;6186819;23;20403;-86
2023/09/02 02:00:53;;;;;;;3.40;3.20;;;23.40;87.10;;;;;;6186461;23;20465;-86
2023/09/02 02:03:26;;;;;;;2.87;2.67;;;23.40;87.10;;;;;;6187225;23;20407;-86
2023/09/02 02:05:54;;;;;;;2.70;2.50;;;23.30;87.00;;;;;;6186804;23;20390;-87
2023/09/02 02:08:28;;;;;;;2.70;2.50;;;23.40;87.10;;;;;;6186842;23;20485;-86
2023/09/02 02:10:59;;;;;;;2.27;2.17;;;23.40;87.10;;;;;;6186485;23;20395;-86
2023/09/02 02:13:26;;;;;;;2.60;2.40;;;23.40;87.10;;;;;;6186882;23;20498;-86
2023/09/02 02:15:52;;;;;;;2.93;2.73;;;23.40;87.10;;;;;;6186880;23;20489;-86
2023/09/02 02:18:19;;;;;;;2.90;2.53;;;23.40;87.10;;;;;;6186744;23;20399;-86
2023/09/02 02:20:58;;;;;;;2.40;2.30;;;23.40;87.10;;;;;;6186624;23;20446;-86
2023/09/02 02:23:24;;;;;;;2.40;2.20;;;23.40;87.10;;;;;;6186770;23;20672;-86
2023/09/02 02:25:51;;;;;;;2.40;2.30;;;23.40;87.10;;;;;;6186675;23;20426;-86
2023/09/02 02:28:18;;;;;;;2.53;2.33;;;23.50;87.20;;;;;;6186636;23;20502;-86
2023/09/02 02:30:45;;;;;;;2.30;2.20;;;23.40;87.10;;;;;;6186672;23;20413;-86
2023/09/02 02:33:12;;;;;;;2.60;2.40;;;23.40;87.10;;;;;;6186331;23;20485;-85
2023/09/02 02:35:39;;;;;;;2.10;2.00;;;23.40;87.10;;;;;;6186071;23;20410;-86
2023/09/02 02:38:07;;;;;;;2.40;2.20;;;23.40;87.00;;;;;;6186557;23;20415;-86
2023/09/02 02:40:33;;;;;;;2.77;2.57;;;23.50;87.20;;;;;;6186299;23;20454;-87
2023/09/02 02:43:00;;;;;;;2.60;2.40;;;23.40;87.10;;;;;;6186084;23;20410;-86
2023/09/02 02:45:27;;;;;;;2.53;2.40;;;23.40;87.10;;;;;;6186573;23;20403;-87
2023/09/02 02:47:54;;;;;;;2.50;2.30;;;23.40;87.10;;;;;;6186571;23;20882;-86
2023/09/02 02:50:21;;;;;;;2.97;2.77;;;23.40;87.10;;;;;;6185939;23;20422;-86
2023/09/02 02:52:47;;;;;;;2.97;2.47;;;23.40;87.00;;;;;;6186454;23;20474;-86
2023/09/02 02:55:16;;;;;;;2.50;2.30;;;23.40;87.10;;;;;;6186349;23;20403;-86
2023/09/02 02:57:45;;;;;;;2.73;2.53;;;23.40;87.10;;;;;;6186316;23;20483;-86
2023/09/02 03:00:13;;;;;;;2.37;2.17;;;23.40;87.10;;;;;;6185963;23;20521;-86
2023/09/02 03:02:40;;;;;;;2.50;2.30;;;23.40;87.10;;;;;;6185756;23;20387;-87
2023/09/02 03:05:08;;;;;;;2.50;2.30;;;23.40;87.10;;;;;;6185813;23;20410;-86
2023/09/02 03:07:35;;;;;;;2.60;2.40;;;23.40;87.10;;;;;;6185807;23;20410;-86
2023/09/02 03:10:01;;;;;;;2.30;2.20;;;23.40;87.10;;;;;;6185751;23;20406;-86
2023/09/02 03:12:30;;;;;;;2.67;2.47;;;23.40;87.10;;;;;;6186133;23;20403;-87
2023/09/02 03:14:56;;;;;;;2.70;2.50;;;23.40;87.10;;;;;;6186342;23;20788;-87
2023/09/02 03:17:23;;;;;;;2.00;1.90;;;23.50;87.20;;;;;;6186228;23;20689;-86
2023/09/02 03:19:50;;;;;;;2.47;2.27;;;23.40;87.10;;;;;;6185896;23;20422;-86
2023/09/02 03:22:17;;;;;;;2.47;2.27;;;23.40;87.10;;;;;;6186000;23;20978;-86
2023/09/02 03:24:43;;;;;;;2.20;2.03;;;23.40;87.10;;;;;;6186468;23;20719;-86
2023/09/02 03:27:10;;;;;;;2.67;2.47;;;23.40;87.10;;;;;;6185962;23;20910;-86
2023/09/02 03:29:38;;;;;;;2.00;1.90;;;23.40;87.10;;;;;;6185384;23;20909;-86
2023/09/02 03:32:06;;;;;;;2.80;2.60;;;23.40;87.10;;;;;;6185784;23;20890;-86
2023/09/02 03:34:33;;;;;;;2.37;2.17;;;23.40;87.10;;;;;;6186227;23;20396;-86
2023/09/02 03:37:00;;;;;;;2.37;2.23;;;23.50;87.20;;;;;;6186619;23;20489;-86
2023/09/02 03:39:26;;;;;;;2.20;2.00;;;23.40;87.10;;;;;;6185708;23;20481;-86
2023/09/02 03:41:53;;;;;;;2.60;2.20;;;23.30;87.00;;;;;;6186015;23;20456;-86
2023/09/02 03:44:20;;;;;;;2.20;2.10;;;23.40;87.10;;;;;;6186088;23;20397;-86
2023/09/02 03:46:48;;;;;;;2.37;2.17;;;23.50;87.20;;;;;;6186099;23;20403;-86
2023/09/02 03:49:15;;;;;;;2.80;2.10;;;23.30;87.00;;;;;;6185938;23;20436;-86
2023/09/02 03:51:42;;;;;;;2.60;2.40;;;23.40;87.10;;;;;;6186109;23;20496;-86
2023/09/02 03:54:09;;;;;;;2.10;2.00;;;23.40;88.00;;;;;;6186120;23;20433;-86
2023/09/02 03:56:39;;;;;;;2.10;2.00;;;23.30;87.00;;;;;;6185933;23;20395;-86
2023/09/02 03:59:07;;;;;;;2.40;2.20;;;23.30;87.00;;;;;;6185557;23;20936;-86
2023/09/02 04:01:33;;;;;;;2.60;2.40;;;23.40;87.10;;;;;;6185358;23;21019;-86
2023/09/02 04:04:01;;;;;;;2.37;2.23;;;23.40;87.10;;;;;;6185994;23;20402;-86
2023/09/02 04:06:28;;;;;;;2.03;1.90;;;23.30;87.00;;;;;;6185933;23;20496;-87
2023/09/02 04:08:55;;;;;;;2.50;2.30;;;23.30;87.00;;;;;;6185928;23;20397;-85
2023/09/02 04:11:23;;;;;;;1.73;1.63;;;23.30;87.00;;;;;;6186080;23;20398;-86
2023/09/02 04:13:49;;;;;;;2.00;1.80;;;23.40;87.10;;;;;;6185902;23;20429;-86
2023/09/02 04:16:16;;;;;;;2.00;1.90;;;23.30;87.00;;;;;;6186153;23;20395;-86
2023/09/02 04:18:43;;;;;;;2.17;2.07;;;23.30;87.00;;;;;;6185826;23;20398;-86
2023/09/02 04:21:11;;;;;;;2.13;1.97;;;23.30;87.00;;;;;;6185208;23;20967;-86
2023/09/02 04:23:38;;;;;;;1.87;1.77;;;23.30;87.00;;;;;;6185941;23;20410;-86
2023/09/02 04:26:05;;;;;;;2.03;1.93;;;23.30;87.00;;;;;;6185839;23;20886;-86
2023/09/02 04:28:32;;;;;;;2.00;1.90;;;23.30;87.00;;;;;;6186058;23;20399;-86
2023/09/02 04:30:59;;;;;;;2.57;2.37;;;23.30;87.10;;;;;;6185939;23;20408;-86
2023/09/02 04:33:26;;;;;;;2.10;2.00;;;23.30;87.00;;;;;;6185980;23;20410;-86
2023/09/02 04:35:53;;;;;;;2.20;1.90;;;23.30;87.00;;;;;;6185595;23;20398;-86
2023/09/02 04:38:21;;;;;;;2.10;2.00;;;23.30;87.00;;;;;;6185759;23;20413;-86
2023/09/02 04:40:48;;;;;;;2.10;2.00;;;23.30;87.00;;;;;;6185845;23;20437;-86
2023/09/02 04:43:15;;;;;;;1.83;1.73;;;23.30;87.10;;;;;;6187744;23;20490;-86
2023/09/02 04:45:43;;;;;;;1.80;1.70;;;23.40;87.20;;;;;;6187713;23;20402;-86
2023/09/02 04:48:11;;;;;;;1.90;1.80;;;23.30;87.00;;;;;;6187714;23;20402;-86
2023/09/02 04:50:38;;;;;;;2.00;1.90;;;23.30;87.00;;;;;;6187020;23;20457;-86
2023/09/02 04:53:07;;;;;;;2.00;1.90;;;23.30;87.10;;;;;;6187608;23;20436;-86
2023/09/02 04:55:38;;;;;;;2.03;1.93;;;23.30;87.00;;;;;;6187506;23;20406;-86
2023/09/02 04:58:05;;;;;;;2.13;2.03;;;23.30;87.10;;;;;;6187538;23;20391;-86
2023/09/02 05:00:34;;;;;;;1.80;1.70;;;23.30;87.10;;;;;;6187131;23;20426;-86
2023/09/02 05:03:01;;;;;;;2.13;1.60;;;23.30;87.10;;;;;;6187577;23;20401;-86
2023/09/02 05:05:29;;;;;;;1.60;1.50;;;23.30;87.00;;;;;;6187539;23;20490;-86
2023/09/02 05:07:56;;;;;;;2.00;1.90;;;23.40;87.10;;;;;;6187379;23;20399;-86
2023/09/02 05:10:23;;;;;;;5.80;2.30;;;23.30;87.00;;;;;;6187225;23;20414;-86
2023/09/02 05:12:51;;;;;;;1.40;1.30;;;23.30;87.00;;;;;;6187444;23;20725;-86
2023/09/02 05:15:18;;;;;;;1.60;1.50;;;23.30;87.00;;;;;;6187726;23;20421;-86
2023/09/02 05:17:45;;;;;;;2.27;2.13;;;23.30;87.10;;;;;;6186679;23;20901;-86
2023/09/02 05:20:12;;;;;;;1.80;1.70;;;23.30;87.00;;;;;;6187083;23;20476;-86
2023/09/02 05:22:39;;;;;;;1.93;1.83;;;23.50;87.40;;;;;;6187146;23;20525;-86
2023/09/02 05:25:07;;;;;;;1.50;1.40;;;23.30;87.10;;;;;;6187469;23;20409;-86
2023/09/02 05:27:33;;;;;;;2.03;1.93;;;23.30;87.00;;;;;;6187200;23;20397;-86
2023/09/02 05:30:01;;;;;;;2.10;2.00;;;23.30;87.10;;;;;;6187317;23;20406;-86
2023/09/02 05:32:28;;;;;;;2.17;2.00;;;23.30;87.00;;;;;;6187138;23;20501;-86
2023/09/02 05:34:55;;;;;;;1.80;1.70;;;23.30;87.10;;;;;;6187084;23;20485;-86
2023/09/02 05:37:22;;;;;;;1.97;1.87;;;23.30;87.10;;;;;;6187153;23;20407;-86
2023/09/02 05:39:49;;;;;;;1.53;1.43;;;23.30;87.10;;;;;;6186633;23;20436;-86
2023/09/02 05:42:15;;;;;;;1.90;1.80;;;23.30;87.10;;;;;;6187093;23;20447;-86
2023/09/02 05:44:43;;;;;;;2.50;2.30;;;23.30;87.00;;;;;;6186999;23;20414;-86
2023/09/02 05:47:11;;;;;;;1.60;1.50;;;23.30;87.90;;;;;;6186492;23;20405;-86
2023/09/02 05:49:38;;;;;;;2.00;1.90;;;23.30;87.10;;;;;;6186469;23;20922;-86
2023/09/02 05:52:06;;;;;;;2.10;2.00;;;23.30;87.10;;;;;;6187339;23;20403;-87
2023/09/02 05:54:33;;;;;;;2.20;1.80;;;23.30;87.10;;;;;;6186782;23;20413;-86
2023/09/02 05:57:00;;;;;;;1.80;1.70;;;23.30;87.10;;;;;;6186772;23;20410;-85
2023/09/02 05:59:26;;;;;;;1.70;1.60;;;23.30;87.00;;;;;;6186749;23;20485;-85
2023/09/02 06:01:55;;;;;;;2.13;2.03;;;23.50;87.40;;;;;;6186062;23;20455;-86
2023/09/02 06:04:23;;;;;;;2.07;1.87;;;23.30;87.00;;;;;;6186317;23;20418;-86
2023/09/02 06:06:50;;;;;;;1.97;1.83;;;23.30;87.10;;;;;;6186242;23;20402;-86
2023/09/02 06:09:17;;;;;;;1.70;1.60;;;23.30;87.10;;;;;;6185735;23;20498;-86
2023/09/02 06:11:43;;;;;;;1.90;1.80;;;23.30;87.30;;;;;;6185624;23;20403;-87
2023/09/02 06:14:10;;;;;;;1.70;1.60;;;23.30;87.10;;;;;;6185474;23;20741;-87
2023/09/02 06:16:37;;;;;;;2.10;1.90;;;23.30;87.10;;;;;;6186483;23;20406;-89
2023/09/02 06:19:04;;;;;;;1.73;1.63;;;23.30;87.10;;;;;;6186179;23;20423;-90
2023/09/02 06:21:32;;;;;;;4.70;2.67;;;23.40;87.10;;;;;;6186484;23;20445;-94
2023/09/02 06:23:59;;;;;;;4.30;3.50;;;23.30;87.70;;;;;;6186105;23;20413;-93
2023/09/02 06:26:26;;;;;;;5.97;5.47;;;23.30;88.50;;;;;;6186292;23;20501;-90
2023/09/02 06:28:53;;;;;;;7.07;6.53;;;23.30;89.70;;;;;;6186566;23;20878;-89
2023/09/02 06:31:20;;;;;;;6.80;6.30;;;23.30;90.40;;;;;;6186657;23;20413;-90
2023/09/02 06:33:47;;;;;;;9.23;7.30;;;23.20;90.80;;;;;;6187168;23;20442;-93
2023/09/02 06:36:16;;;;;;;10.13;7.53;;;23.30;91.40;;;;;;6186571;23;20432;-90
2023/09/02 06:38:44;;;;;;;8.93;7.30;;;23.10;91.60;;;;;;6186517;23;20406;-90
2023/09/02 06:41:12;;;;;;;7.83;7.13;;;23.20;91.90;;;;;;6186039;23;20446;-93
2023/09/02 06:43:39;;;;;;;7.93;7.20;;;23.10;92.10;;;;;;6186365;23;20497;-90
2023/09/02 06:46:12;;;;;;;8.77;7.87;;;23.00;92.30;;;;;;6186727;23;20409;-93
2023/09/02 06:48:39;;;;;;;7.60;6.90;;;23.00;92.50;;;;;;6186409;23;20393;-93
2023/09/02 06:51:06;;;;;;;13.40;7.77;;;23.00;92.60;;;;;;6186111;23;20434;-93
2023/09/02 06:53:33;;;;;;;7.50;6.90;;;23.00;93.00;;;;;;6186419;23;20490;-90
2023/09/02 06:56:01;;;;;;;7.67;6.87;;;23.00;93.10;;;;;;6186495;23;20806;-93
2023/09/02 06:58:29;;;;;;;9.30;7.33;;;22.90;92.70;;;;;;6186261;23;20398;-93
2023/09/02 07:00:56;;;;;;;6.23;5.63;;;22.90;92.60;;;;;;6186090;23;20438;-91
2023/09/02 07:03:23;;;;;;;6.40;5.60;;;22.90;92.60;;;;;;6186385;23;20706;-90
2023/09/02 07:05:50;;;;;;;7.40;6.30;;;22.90;92.50;;;;;;6185931;23;20393;-90
2023/09/02 07:08:17;;;;;;;6.83;5.90;;;22.90;92.60;;;;;;6186226;23;20925;-90
2023/09/02 07:10:44;;;;;;;7.53;6.03;;;22.90;92.90;;;;;;6186223;23;20720;-93
2023/09/02 07:13:12;;;;;;;9.90;5.90;;;22.90;93.10;;;;;;6185917;23;20493;-92
2023/09/02 07:15:39;;;;;;;5.73;5.23;;;22.90;93.30;;;;;;6186279;23;20491;-90
2023/09/02 07:18:05;;;;;;;6.90;5.50;;;22.90;93.50;;;;;;6186204;23;20399;-90
2023/09/02 07:20:36;;;;;;;10.57;6.00;;;22.90;93.60;;;;;;6185756;23;20505;-90
2023/09/02 07:23:03;;;;;;;11.73;6.37;;;22.90;93.70;;;;;;6185790;23;20446;-89
2023/09/02 07:25:30;;;;;;;5.90;5.40;;;23.00;93.70;;;;;;6186221;23;20488;-90
2023/09/02 07:27:57;;;;;;;6.50;5.90;;;23.00;93.80;;;;;;6186384;23;20408;-90
2023/09/02 07:30:25;;;;;;;8.33;6.57;;;22.90;93.80;;;;;;6186264;23;20505;-89
2023/09/02 07:32:51;;;;;;;6.40;5.90;;;23.00;93.80;;;;;;6185937;23;20412;-88
2023/09/02 07:35:18;;;;;;;9.37;6.03;;;23.00;93.80;;;;;;6185865;23;20445;-87
2023/09/02 07:37:45;;;;;;;7.40;6.57;;;23.00;93.80;;;;;;6185619;23;20908;-87
2023/09/02 07:40:12;;;;;;;6.60;6.00;;;23.10;94.00;;;;;;6186183;23;20399;-95
2023/09/02 07:42:39;;;;;;;7.67;6.97;;;23.00;94.20;;;;;;6186118;23;20446;-86
2023/09/02 07:45:07;;;;;;;7.90;7.10;;;23.00;94.20;;;;;;6188853;23;20405;-86
2023/09/02 07:47:35;;;;;;;6.10;5.40;;;23.00;94.20;;;;;;6191113;23;20433;-91
2023/09/02 07:50:02;;;;;;;7.93;7.20;;;23.00;94.10;;;;;;6191018;23;20981;-86
2023/09/02 07:52:29;;;;;;;7.43;6.43;;;23.00;94.00;;;;;;6190409;23;20731;-89
2023/09/02 07:54:56;;;;;;;7.20;6.50;;;23.00;94.00;;;;;;6191041;23;20410;-87
2023/09/02 07:57:23;;;;;;;9.00;6.80;;;23.00;94.10;;;;;;6200004;23;20494;-86
2023/09/02 07:59:50;;;;;;;10.27;6.33;;;23.10;94.40;;;;;;6195105;23;20501;-91
2023/09/02 08:02:17;;;;;;;7.07;6.00;;;23.10;94.40;;;;;;6201183;23;20463;-88
2023/09/02 08:04:45;;;;;;;6.80;6.20;;;23.00;94.30;;;;;;6207251;23;20406;-88
2023/09/02 08:07:11;;;;;;;7.87;6.80;;;23.00;94.70;;;;;;6203012;23;20952;-90
2023/09/02 08:09:38;;;;;;;7.13;6.43;;;23.00;94.40;;;;;;6207248;23;20458;-88
2023/09/02 08:12:06;;;;;;;7.07;5.83;;;23.00;94.50;;;;;;6202967;23;20471;-87
2023/09/02 08:14:33;;;;;;;6.17;5.33;;;23.00;94.60;;;;;;6202980;23;20434;-87
2023/09/02 08:16:59;;;;;;;6.70;5.97;;;23.00;94.70;;;;;;6204025;23;20421;-88
2023/09/02 08:19:26;;;;;;;6.63;4.73;;;23.00;94.50;;;;;;6203997;23;20417;-87
2023/09/02 08:21:54;;;;;;;7.00;5.10;;;23.00;94.30;;;;;;6202573;23;20493;-87
2023/09/02 08:24:21;;;;;;;5.13;4.70;;;23.00;94.40;;;;;;6206431;23;20438;-90
2023/09/02 08:26:48;;;;;;;5.53;4.97;;;23.00;94.50;;;;;;6205804;23;20427;-92
2023/09/02 08:29:14;;;;;;;4.73;4.40;;;23.00;94.40;;;;;;6196776;23;20450;-86
2023/09/02 08:31:41;;;;;;;10.00;4.23;;;23.00;94.40;;;;;;6203248;23;20422;-92
2023/09/02 08:34:08;;;;;;;4.73;4.33;;;23.10;94.50;;;;;;6202098;23;20440;-93
2023/09/02 08:36:35;;;;;;;4.23;3.67;;;23.10;94.50;;;;;;6202547;23;20433;-87
2023/09/02 08:39:04;;;;;;;3.90;3.20;;;23.10;94.40;;;;;;6204809;23;20414;-86
2023/09/02 08:41:31;;;;;;;3.87;3.53;;;23.10;94.30;;;;;;6200781;23;20462;-91
2023/09/02 08:44:02;;;;;;;3.80;3.33;;;23.10;94.40;;;;;;6205418;23;20438;-96
2023/09/02 08:46:30;;;;;;;3.60;3.30;;;23.20;94.30;;;;;;6202153;23;20459;-86
2023/09/02 08:48:57;;;;;;;4.43;2.80;;;23.20;94.00;;;;;;6197386;23;20873;-86
2023/09/02 08:51:26;;;;;;;3.47;2.10;;;23.10;94.00;;;;;;6200261;23;20409;-95
2023/09/02 08:53:54;;;;;;;2.67;2.40;;;23.20;93.90;;;;;;6201204;23;20382;-96
2023/09/02 08:56:24;;;;;;;6.00;2.50;;;23.20;93.80;;;;;;6199872;23;20399;-86
2023/09/02 08:58:52;;;;;;;2.00;1.90;;;23.30;93.60;;;;;;6203572;23;20433;-90
2023/09/02 09:01:20;;;;;;;3.10;1.97;;;23.50;93.30;;;;;;6200721;23;20427;-87
2023/09/02 09:03:49;;;;;;;2.23;1.63;;;23.40;92.80;;;;;;6203119;23;20439;-87
2023/09/02 09:06:19;;;;;;;2.60;1.70;;;23.40;92.60;;;;;;6202823;23;20411;-89
2023/09/02 09:08:48;;;;;;;2.37;1.93;;;23.50;92.50;;;;;;6200973;23;20399;-86
2023/09/02 09:11:16;;;;;;;3.40;2.00;;;23.50;92.40;;;;;;6199652;23;20407;-93
2023/09/02 09:13:46;;;;;;;2.40;1.73;;;23.50;92.30;;;;;;6202314;23;20402;-94
2023/09/02 09:16:17;;;;;;;1.70;1.60;;;23.50;92.10;;;;;;6165776;23;20712;-92
2023/09/02 09:18:43;;;;;;;1.40;1.30;;;23.50;92.10;;;;;;6187113;23;20425;-83
2023/09/02 09:21:11;;;;;;;1.93;1.40;;;23.60;92.10;;;;;;6187996;23;20719;-96
2023/09/02 09:23:37;;;;;;;1.60;1.50;;;23.40;92.00;;;;;;6189220;23;20454;-92
2023/09/02 09:26:05;;;;;;;1.57;1.47;;;23.60;92.10;;;;;;6189766;23;20916;-95
2023/09/02 09:28:52;;;;;;;2.33;1.40;;;23.60;91.90;;;;;;6187704;23;20485;-87
2023/09/02 09:31:20;;;;;;;1.80;1.43;;;23.60;91.80;;;;;;6187739;23;20383;-88
2023/09/02 09:33:51;;;;;;;1.30;1.20;;;23.60;91.70;;;;;;6187573;23;20409;-87
2023/09/02 09:36:21;;;;;;;1.83;1.57;;;23.60;91.70;;;;;;6188619;23;20882;-88
2023/09/02 09:38:48;;;;;;;2.47;1.60;;;23.70;91.70;;;;;;6188574;23;20399;-93
2023/09/02 09:41:15;;;;;;;2.03;1.60;;;23.60;91.60;;;;;;6188204;23;20409;-87
2023/09/02 09:43:42;;;;;;;3.37;1.67;;;23.60;91.60;;;;;;6187609;23;20529;-96
2023/09/02 09:46:14;;;;;;;1.63;1.50;;;23.70;91.60;;;;;;6187803;23;20457;-96
2023/09/02 09:48:47;;;;;;;1.53;1.43;;;23.70;91.50;;;;;;6187731;23;20426;-88
2023/09/02 09:51:22;;;;;;;1.80;1.67;;;23.70;91.50;;;;;;6187689;23;20387;-88
2023/09/02 09:53:49;;;;;;;1.63;1.53;;;23.70;91.40;;;;;;6188915;23;20426;-87
2023/09/02 09:56:16;;;;;;;1.40;1.27;;;23.70;91.40;;;;;;6189909;23;20938;-87
2023/09/02 09:58:43;;;;;;;1.50;1.40;;;23.70;91.40;;;;;;6191334;23;20793;-96
2023/09/02 10:01:11;;;;;;;2.37;1.60;;;23.70;91.40;;;;;;6186747;23;20925;-88
2023/09/02 10:03:38;;;;;;;1.57;1.20;;;23.80;91.40;;;;;;6186836;23;20517;-93
2023/09/02 10:06:05;;;;;;;2.37;1.47;;;23.80;91.40;;;;;;6186974;23;20777;-93
2023/09/02 10:08:50;;;;;;;1.60;1.50;;;23.80;91.30;;;;;;6186975;23;20474;-92
2023/09/02 10:11:24;;;;;;;5.57;1.30;;;23.80;91.30;;;;;;6190856;23;20684;-86
2023/09/02 10:13:53;;;;;;;1.40;1.17;;;23.80;91.30;;;;;;6187430;23;20917;-86
2023/09/02 10:16:22;;;;;;;1.70;1.60;;;24.00;91.30;;;;;;6187647;23;20394;-96
2023/09/02 10:18:49;;;;;;;1.67;1.57;;;23.80;91.20;;;;;;6186996;23;20422;-86
2023/09/02 10:21:17;;;;;;;1.43;1.33;;;23.80;91.30;;;;;;6187702;23;20486;-86
2023/09/02 10:23:50;;;;;;;1.80;1.10;;;23.80;91.30;;;;;;6187938;23;20979;-95
2023/09/02 10:26:24;;;;;;;1.50;1.30;;;23.80;91.30;;;;;;6188398;23;20387;-87
2023/09/02 10:28:55;;;;;;;1.40;1.30;;;23.80;91.30;;;;;;6187919;23;20406;-86
2023/09/02 10:31:26;;;;;;;2.47;1.73;;;23.80;91.30;;;;;;6188502;23;20404;-96
2023/09/02 10:34:02;;;;;;;1.50;1.40;;;23.70;91.40;;;;;;6191372;23;20399;-94
2023/09/02 10:36:32;;;;;;;1.60;1.50;;;23.90;91.50;;;;;;6198907;23;20505;-87
2023/09/02 10:39:03;;;;;;;1.53;1.23;;;23.70;91.30;;;;;;6199819;23;20443;-95
2023/09/02 10:41:31;;;;;;;1.67;1.57;;;23.70;91.40;;;;;;6196721;23;20392;-86
2023/09/02 10:43:59;;;;;;;2.80;1.70;;;23.70;91.40;;;;;;6171144;23;20509;-87
2023/09/02 10:46:27;;;;;;;5.13;1.50;;;23.70;91.40;;;;;;6194533;23;20407;-87
2023/09/02 10:48:55;;;;;;;1.50;1.40;;;23.70;91.40;;;;;;6167317;23;20526;-95
2023/09/02 10:51:22;;;;;;;1.60;1.50;;;23.70;91.40;;;;;;6191938;23;20393;-87
2023/09/02 10:54:00;;;;;;;1.50;1.20;;;23.70;91.30;;;;;;6189420;23;20413;-87
2023/09/02 10:56:28;;;;;;;2.17;1.40;;;23.70;91.30;;;;;;6189725;23;20399;-94
2023/09/02 10:58:55;;;;;;;1.73;1.40;;;23.70;91.30;;;;;;6189148;23;20406;-95
2023/09/02 11:01:22;;;;;;;1.90;1.60;;;23.70;91.30;;;;;;6190357;23;20399;-88
2023/09/02 11:03:52;;;;;;;1.97;1.40;;;23.70;91.30;;;;;;6188835;23;20961;-87
2023/09/02 11:06:19;;;;;;;1.90;1.63;;;23.70;91.30;;;;;;6189413;23;20418;-87
2023/09/02 11:08:48;;;;;;;1.83;1.27;;;23.70;91.30;;;;;;6188378;23;20405;-95
2023/09/02 11:11:16;;;;;;;1.50;1.40;;;23.70;91.30;;;;;;6188974;23;20522;-89
2023/09/02 11:14:21;;;;;;;3.40;1.60;;;23.70;91.30;;;;;;6189167;23;20423;-86
2023/09/02 11:17:26;;;;;;;1.60;1.37;;;23.70;91.30;;;;;;6188338;23;20468;-94
2023/09/02 11:19:59;;;;;;;3.63;1.80;;;23.70;91.30;;;;;;6190745;23;20503;-95
2023/09/02 11:23:01;;;;;;;1.90;1.70;;;23.70;91.40;;;;;;6189322;23;20462;-86
2023/09/02 11:25:28;;;;;;;4.13;1.83;;;23.70;91.40;;;;;;6100442;23;20409;-95
2023/09/02 11:27:56;;;;;;;2.70;1.50;;;23.70;91.40;;;;;;6098308;23;20509;-86
2023/09/02 11:30:23;;;;;;;3.33;2.10;;;23.70;91.40;;;;;;6139802;23;20506;-89
2023/09/02 11:32:50;;;;;;;2.40;2.20;;;23.70;91.40;;;;;;6186870;23;20498;-87
2023/09/02 11:35:25;;;;;;;3.40;1.53;;;23.70;91.40;;;;;;6187450;23;20407;-87
2023/09/02 11:37:51;;;;;;;3.03;2.03;;;23.70;91.40;;;;;;6185972;23;20396;-92
2023/09/02 11:40:20;;;;;;;3.60;1.47;;;23.70;91.30;;;;;;6185779;23;20485;-88
2023/09/02 11:42:50;;;;;;;2.37;1.60;;;23.70;91.30;;;;;;6186411;23;20470;-89
2023/09/02 11:45:17;;;;;;;2.57;1.97;;;23.70;91.40;;;;;;6186268;23;20482;-87
2023/09/02 11:47:45;;;;;;;1.90;1.80;;;23.70;91.40;;;;;;6186582;23;20482;-95
2023/09/02 11:50:13;;;;;;;3.87;1.70;;;23.70;91.40;;;;;;6187139;23;20517;-93
2023/09/02 11:52:41;;;;;;;1.93;1.63;;;23.70;91.40;;;;;;6187918;23;20482;-94
2023/09/02 11:55:10;;;;;;;1.73;1.60;;;23.70;91.30;;;;;;6188105;23;20401;-94
2023/09/02 11:57:37;;;;;;;2.20;2.00;;;23.70;91.70;;;;;;6188076;23;20494;-88
2023/09/02 12:00:06;;;;;;;2.53;2.33;;;23.70;91.40;;;;;;6187933;23;20898;-92
2023/09/02 12:02:36;;;;;;;3.47;1.77;;;23.70;91.40;;;;;;6187649;23;20505;-87
2023/09/02 12:05:03;;;;;;;2.30;2.10;;;23.70;91.40;;;;;;6188484;23;20710;-95
2023/09/02 12:07:31;;;;;;;3.30;3.00;;;23.70;91.50;;;;;;6188064;23;20493;-95
2023/09/02 12:10:06;;;;;;;3.83;2.90;;;23.70;91.50;;;;;;6188385;23;20395;-90
2023/09/02 12:12:33;;;;;;;3.10;2.07;;;23.70;91.60;;;;;;6189761;23;21014;-87
2023/09/02 12:15:01;;;;;;;2.40;2.13;;;23.70;91.70;;;;;;6188450;23;20486;-89
2023/09/02 12:17:29;;;;;;;3.30;2.33;;;23.70;91.60;;;;;;6186651;23;20407;-87
2023/09/02 12:19:56;;;;;;;2.90;1.90;;;23.70;91.60;;;;;;6187080;23;21291;-88
2023/09/02 12:22:23;;;;;;;2.97;2.17;;;23.70;91.60;;;;;;6187890;23;20434;-94
2023/09/02 12:24:50;;;;;;;2.30;2.00;;;23.70;91.60;;;;;;6187639;23;20461;-86
2023/09/02 12:27:18;;;;;;;2.03;1.83;;;23.70;91.50;;;;;;6187016;23;20977;-86
2023/09/02 12:29:55;;;;;;;2.87;2.23;;;23.70;91.60;;;;;;6187722;23;20426;-86
2023/09/02 12:32:22;;;;;;;2.33;2.23;;;23.70;91.60;;;;;;6187685;23;20387;-86
2023/09/02 12:34:49;;;;;;;3.33;2.40;;;23.70;91.60;;;;;;6187774;23;20760;-92
2023/09/02 12:37:17;;;;;;;2.40;2.20;;;23.70;91.50;;;;;;6186353;23;20490;-85
2023/09/02 12:39:44;;;;;;;2.90;2.20;;;23.70;91.50;;;;;;6187159;23;20399;-86
2023/09/02 12:42:22;;;;;;;3.00;2.30;;;23.70;91.50;;;;;;6186901;23;20428;-86
2023/09/02 12:44:53;;;;;;;2.60;2.40;;;23.70;91.50;;;;;;6186786;23;20441;-91
2023/09/02 12:47:21;;;;;;;4.13;2.10;;;23.70;91.50;;;;;;6186708;23;20430;-85
2023/09/02 12:49:48;;;;;;;2.93;2.73;;;23.70;91.50;;;;;;6186086;23;20517;-85
2023/09/02 12:52:20;;;;;;;3.33;2.73;;;23.70;91.50;;;;;;6187364;23;20426;-85